KGCK

Garden City Regional Airport

Airport
ICAO code
KGCK
Summary
ICAO Region
NAM
ICAO Territory
Location

Garden City, Kansas,

Elevation
2891 ft
Coordinates
37° 55' 39" N , 100° 43' 20" W
KCC
Airport CFIT
Altimeter Temperature Error Correction
Metar
Observation
KGCK 070754Z AUTO 06015KT 10SM CLR 10/07 A3036 RMK AO2 SLP262 T01000067
Station
Garden City, Garden City Regional Airport
Date/Time
2022-10-07 07:54:00
Wind direction
60°
Wind speed
15 kts
Lowest cloud amount
n/a
Temperature
10°C
Dew point
6.7°C
Humidity
79%
Weather condition
n/a

Description

Garden City Regional Airport is a public-use airport located 15 km southeast of the central business district of Garden City, in Finney County, Kansas.

Climatology

Semi-arid Steppe climate (Köppen climate classification BSk) - Little precipitation, hot summers and cold winters, sometimes with large changes in temperature in a 24 hour period

Airport map

Aerial View

SKYbrary Partners:

Safety knowledge contributed by: